Terminal Aerodrome Forecast
Issued by NWS Wilmington, OH

Current Version | Previous Version | Graphics & Text | Print | Product List | Glossary On
Versions: 1 2 3 4 5 6 7 8 9 10 11 12 13 14 15 16 17 18 19 20 21 22 23 24 25 26
106
FTUS41 KILN 091124
TAFILN
TAF
KILN 091124Z 0912/1012 26012G20KT 2SM -SN OVC025
      TEMPO 0912/0916 3/4SM -SN OVC012
     FM091700 27012G20KT 5SM -SHSN OVC022
     FM100000 27012KT P6SM VCSH OVC025=

USA.gov is the U.S. government's official web portal to all federal, state and local government web resources and services.